Time;durP1;ratioP1;P1;durP2;ratioP2;P2;SDS_P1;SDS_P2;PMS_P1;PMS_P2;Temp;Humidity;BMP_temperature;BMP_pressure;BME280_temperature;BME280_humidity;BME280_pressure;Samples;Min_cycle;Max_cycle;Signal;HPM_P1;HPM_P2
2022/06/14 00:00:57;;;;;;;3.23;2.20;;;20.60;73.80;;;;;;5071818;28;20452;-80
2022/06/14 00:03:28;;;;;;;2.50;1.70;;;20.60;74.80;;;;;;5071616;28;20470;-80
2022/06/14 00:05:58;;;;;;;2.13;1.93;;;20.60;74.80;;;;;;5070480;28;20474;-80
2022/06/14 00:08:27;;;;;;;1.83;1.43;;;20.60;75.80;;;;;;5071894;28;20443;-80
2022/06/14 00:10:59;;;;;;;2.77;1.43;;;20.60;77.20;;;;;;5066167;28;20828;-80
2022/06/14 00:13:27;;;;;;;2.60;2.10;;;20.60;77.10;;;;;;5071799;28;20512;-80
2022/06/14 00:15:56;;;;;;;2.80;2.00;;;20.60;77.40;;;;;;5070488;28;20466;-80
2022/06/14 00:18:24;;;;;;;5.00;2.07;;;20.50;78.80;;;;;;5069730;28;21309;-81
2022/06/14 00:20:52;;;;;;;2.63;1.70;;;20.50;79.40;;;;;;5071467;28;20555;-81
2022/06/14 00:23:22;;;;;;;2.40;1.90;;;20.50;80.30;;;;;;5071505;28;20555;-80
2022/06/14 00:25:54;;;;;;;2.30;1.97;;;20.40;80.80;;;;;;5070533;28;20508;-81
2022/06/14 00:28:25;;;;;;;3.50;2.13;;;20.50;94.00;;;;;;5068719;28;20453;-81
2022/06/14 00:30:56;;;;;;;4.70;1.67;;;20.40;78.50;;;;;;5070816;28;20513;-80
2022/06/14 00:33:25;;;;;;;4.07;2.27;;;20.40;78.70;;;;;;5069986;28;21015;-80
2022/06/14 00:35:58;;;;;;;1.93;1.80;;;20.30;78.90;;;;;;5070033;28;20478;-80
2022/06/14 00:38:27;;;;;;;1.63;1.30;;;20.30;77.80;;;;;;5071190;28;20454;-80
2022/06/14 00:40:57;;;;;;;2.90;2.00;;;20.20;79.20;;;;;;5070845;28;20453;-81
2022/06/14 00:43:28;;;;;;;4.97;1.70;;;20.30;79.40;;;;;;5066906;28;21013;-80
2022/06/14 00:46:17;;;;;;;2.33;1.97;;;20.30;79.50;;;;;;5066401;28;20482;-81
2022/06/14 00:49:02;;;;;;;2.97;2.00;;;20.20;79.50;;;;;;5071335;28;20493;-81
2022/06/14 00:51:33;;;;;;;3.63;2.10;;;20.20;79.40;;;;;;5071168;28;20459;-81
2022/06/14 00:54:10;;;;;;;2.60;2.40;;;20.20;80.60;;;;;;5070942;28;21033;-81
2022/06/14 00:56:43;;;;;;;3.93;1.80;;;20.10;80.10;;;;;;5070410;28;20518;-80
2022/06/14 00:59:20;;;;;;;2.43;1.80;;;20.10;80.10;;;;;;5070053;28;20492;-81
2022/06/14 01:01:53;;;;;;;3.67;2.00;;;20.10;81.30;;;;;;5069609;28;20454;-81
2022/06/14 01:04:26;;;;;;;2.13;1.93;;;20.10;82.60;;;;;;5070632;28;20510;-81
2022/06/14 01:06:57;;;;;;;2.70;1.90;;;20.10;83.00;;;;;;5070659;28;20465;-80
2022/06/14 01:09:32;;;;;;;6.10;1.90;;;20.10;84.50;;;;;;5070856;28;20462;-80
2022/06/14 01:12:04;;;;;;;3.40;2.00;;;20.10;85.20;;;;;;5070323;28;20454;-80
2022/06/14 01:14:42;;;;;;;4.47;2.30;;;20.00;85.10;;;;;;5070300;28;20569;-80
2022/06/14 01:17:13;;;;;;;2.07;1.80;;;19.90;83.80;;;;;;5067709;28;20512;-80
2022/06/14 01:19:42;;;;;;;4.23;1.80;;;19.90;84.30;;;;;;5064357;28;20458;-80
2022/06/14 01:22:29;;;;;;;6.63;1.90;;;19.90;83.90;;;;;;5070260;28;20477;-81
2022/06/14 01:25:00;;;;;;;1.97;1.70;;;19.80;84.50;;;;;;5070194;28;20990;-80
2022/06/14 01:27:30;;;;;;;3.00;1.90;;;19.70;84.60;;;;;;5069965;28;20863;-80
2022/06/14 01:30:10;;;;;;;4.00;2.00;;;19.70;83.70;;;;;;5070137;28;20450;-80
2022/06/14 01:32:46;;;;;;;3.57;1.90;;;19.60;85.20;;;;;;5069041;28;20515;-80
2022/06/14 01:35:19;;;;;;;1.87;1.67;;;19.70;86.20;;;;;;5065589;28;20482;-80
2022/06/14 01:37:51;;;;;;;4.30;2.20;;;19.70;87.30;;;;;;5070063;28;20454;-81
2022/06/14 01:40:21;;;;;;;3.00;2.00;;;19.70;88.30;;;;;;5070191;28;20504;-81
2022/06/14 01:43:06;;;;;;;2.40;2.20;;;19.70;90.30;;;;;;5069994;28;20569;-80
2022/06/14 01:45:44;;;;;;;1.90;1.80;;;19.70;88.60;;;;;;5067813;28;20478;-80
2022/06/14 01:48:21;;;;;;;3.73;1.87;;;19.60;90.20;;;;;;5069850;28;20450;-81
2022/06/14 01:53:52;;;;;;;3.20;2.20;;;19.60;91.00;;;;;;5058875;28;20458;-80
2022/06/14 01:56:37;;;;;;;3.63;2.30;;;19.60;90.90;;;;;;5069158;28;20438;-80
2022/06/14 01:59:13;;;;;;;2.43;2.13;;;19.50;99.60;;;;;;5069881;28;20454;-80
2022/06/14 02:01:48;;;;;;;3.67;1.90;;;19.40;91.10;;;;;;5069787;28;20512;-80
2022/06/14 02:04:38;;;;;;;3.77;1.93;;;19.40;91.00;;;;;;5069376;28;20485;-81
2022/06/14 02:07:14;;;;;;;2.70;2.20;;;19.50;91.70;;;;;;5069205;28;20949;-80
2022/06/14 02:09:55;;;;;;;3.50;2.40;;;19.40;91.50;;;;;;5069243;28;20529;-80
2022/06/14 02:12:36;;;;;;;4.30;2.10;;;19.40;99.90;;;;;;5068867;28;20985;-80
2022/06/14 02:15:12;;;;;;;3.23;1.80;;;19.40;91.40;;;;;;5057124;28;20462;-79
2022/06/14 02:17:44;;;;;;;4.30;2.03;;;19.30;91.70;;;;;;5068997;28;20449;-80
2022/06/14 02:20:17;;;;;;;3.20;2.10;;;19.20;92.30;;;;;;5067689;28;20458;-80
2022/06/14 02:22:49;;;;;;;2.87;1.80;;;19.20;92.60;;;;;;5069548;28;20477;-80
2022/06/14 02:25:23;;;;;;;2.80;2.60;;;19.30;93.40;;;;;;5067863;28;20486;-80
2022/06/14 02:27:55;;;;;;;3.00;1.60;;;19.20;92.80;;;;;;5069153;28;20455;-80
2022/06/14 02:30:27;;;;;;;1.97;1.73;;;19.30;93.50;;;;;;5069571;28;20465;-80
2022/06/14 02:33:02;;;;;;;2.47;2.03;;;19.20;94.00;;;;;;5067248;28;20478;-80
2022/06/14 02:35:36;;;;;;;3.63;1.70;;;19.20;93.70;;;;;;5068357;28;20470;-80
2022/06/14 02:38:15;;;;;;;4.80;2.33;;;19.20;93.40;;;;;;5069022;28;20492;-81
2022/06/14 02:40:50;;;;;;;4.87;2.20;;;19.20;94.50;;;;;;5068732;28;20466;-80
2022/06/14 02:43:23;;;;;;;2.87;1.70;;;19.20;94.20;;;;;;5067021;28;20492;-80
2022/06/14 02:45:55;;;;;;;2.73;2.20;;;19.20;94.30;;;;;;5068412;28;20470;-80
2022/06/14 02:48:27;;;;;;;2.83;2.20;;;19.10;94.80;;;;;;5067910;28;20534;-81
2022/06/14 02:50:59;;;;;;;2.10;1.73;;;19.10;95.80;;;;;;5069018;28;20453;-80
2022/06/14 02:53:33;;;;;;;2.07;1.70;;;19.20;95.70;;;;;;5068974;28;20454;-80
2022/06/14 02:56:11;;;;;;;2.77;2.00;;;19.20;95.70;;;;;;5067920;28;20468;-80
2022/06/14 02:58:49;;;;;;;2.80;2.13;;;19.20;96.20;;;;;;5066477;28;20454;-80
2022/06/14 03:01:21;;;;;;;2.03;1.93;;;19.20;96.30;;;;;;5067134;28;20446;-80
2022/06/14 03:03:55;;;;;;;1.93;1.80;;;19.10;95.90;;;;;;5068904;28;20487;-80
2022/06/14 03:06:31;;;;;;;4.60;1.83;;;19.10;96.70;;;;;;5068654;28;20942;-80
2022/06/14 03:09:05;;;;;;;2.57;1.80;;;19.10;96.20;;;;;;5068869;28;20453;-81
2022/06/14 03:11:47;;;;;;;2.13;1.87;;;19.10;96.30;;;;;;5068998;28;20454;-80
2022/06/14 03:14:24;;;;;;;2.13;1.93;;;19.10;96.70;;;;;;5068716;28;20469;-80
2022/06/14 03:17:08;;;;;;;2.20;1.80;;;19.10;96.20;;;;;;5060283;28;20502;-80
2022/06/14 03:19:45;;;;;;;2.73;2.00;;;19.10;96.00;;;;;;5066108;28;20512;-80
2022/06/14 03:22:21;;;;;;;2.40;1.47;;;19.10;96.90;;;;;;5070046;28;20449;-80
2022/06/14 03:24:59;;;;;;;2.20;1.90;;;19.00;95.50;;;;;;5072537;28;20551;-80
2022/06/14 03:27:35;;;;;;;3.23;1.90;;;18.80;95.60;;;;;;5072347;28;20469;-80
2022/06/14 03:30:10;;;;;;;2.17;2.00;;;18.80;96.20;;;;;;5072893;28;20465;-80
2022/06/14 03:32:43;;;;;;;2.70;2.20;;;18.80;96.70;;;;;;5071069;28;20465;-80
2022/06/14 03:35:16;;;;;;;2.93;1.80;;;18.80;97.00;;;;;;5070716;28;20469;-81
2022/06/14 03:37:44;;;;;;;3.23;2.10;;;18.70;97.20;;;;;;5072658;28;20462;-80
2022/06/14 03:40:16;;;;;;;2.90;2.47;;;18.70;98.00;;;;;;5072599;28;21168;-80
2022/06/14 03:42:46;;;;;;;4.50;1.60;;;18.70;97.60;;;;;;5072094;28;20450;-81
2022/06/14 03:45:19;;;;;;;4.77;2.37;;;18.60;98.80;;;;;;5070760;28;20479;-80
2022/06/14 03:47:47;;;;;;;3.07;2.33;;;18.70;97.80;;;;;;5071744;28;20446;-81
2022/06/14 03:50:22;;;;;;;2.70;1.70;;;18.60;98.30;;;;;;5068990;28;20507;-80
2022/06/14 03:53:05;;;;;;;2.80;2.10;;;18.50;97.50;;;;;;5069499;28;20869;-79
2022/06/14 03:55:46;;;;;;;2.30;2.00;;;18.50;97.60;;;;;;5070909;28;20508;-81
2022/06/14 03:58:32;;;;;;;2.17;1.80;;;18.60;98.40;;;;;;5072160;28;20449;-79
2022/06/14 04:01:08;;;;;;;1.97;1.77;;;18.60;99.00;;;;;;5070948;28;20840;-79
2022/06/14 04:03:54;;;;;;;3.63;1.87;;;18.50;99.80;;;;;;5071085;28;20481;-80
2022/06/14 04:06:34;;;;;;;3.20;2.10;;;18.60;99.90;;;;;;5070498;28;21518;-80
2022/06/14 04:09:12;;;;;;;2.00;1.80;;;18.50;99.90;;;;;;5070902;28;20467;-80
2022/06/14 04:11:48;;;;;;;2.23;1.70;;;18.50;99.90;;;;;;5071255;28;20507;-80
2022/06/14 04:14:37;;;;;;;2.10;2.00;;;18.40;99.90;;;;;;5070699;28;20719;-80
2022/06/14 04:17:14;;;;;;;6.60;2.23;;;18.50;99.90;;;;;;5071039;28;20456;-80
2022/06/14 04:19:57;;;;;;;2.33;1.80;;;18.40;99.90;;;;;;5068243;28;20457;-80
2022/06/14 04:22:35;;;;;;;3.47;2.03;;;18.40;99.90;;;;;;5071125;28;20450;-80
2022/06/14 04:25:09;;;;;;;3.23;2.20;;;18.50;99.90;;;;;;5066956;28;20490;-79
2022/06/14 04:27:44;;;;;;;2.80;2.57;;;18.60;99.90;;;;;;5069611;28;20789;-81
2022/06/14 04:30:18;;;;;;;2.87;2.13;;;18.60;99.90;;;;;;5070905;28;20974;-80
2022/06/14 04:32:54;;;;;;;2.87;2.40;;;18.60;99.90;;;;;;5069788;28;21118;-79
2022/06/14 04:35:28;;;;;;;3.20;2.37;;;18.60;99.90;;;;;;5069291;28;20475;-80
2022/06/14 04:38:03;;;;;;;2.60;2.40;;;18.60;99.90;;;;;;5061278;28;20483;-80
2022/06/14 04:40:35;;;;;;;4.00;2.40;;;18.60;99.90;;;;;;5071154;28;20462;-80
2022/06/14 04:43:08;;;;;;;3.57;2.40;;;18.60;99.90;;;;;;5069791;28;20489;-80
2022/06/14 04:45:41;;;;;;;3.10;1.93;;;18.60;99.90;;;;;;5068388;28;20494;-80
2022/06/14 04:48:16;;;;;;;2.53;2.33;;;18.60;99.90;;;;;;5071285;28;20941;-80
2022/06/14 04:50:49;;;;;;;5.13;1.80;;;18.70;99.90;;;;;;5071179;28;20441;-80
2022/06/14 04:53:21;;;;;;;8.20;3.33;;;18.70;99.90;;;;;;5070251;28;20464;-79
2022/06/14 04:55:54;;;;;;;2.40;2.20;;;18.60;99.90;;;;;;5068769;28;20483;-81
2022/06/14 04:58:27;;;;;;;2.40;2.20;;;18.60;99.90;;;;;;5070239;28;20459;-80
2022/06/14 05:01:00;;;;;;;4.03;2.20;;;18.60;99.90;;;;;;5071032;28;20942;-80
2022/06/14 05:03:32;;;;;;;3.80;2.63;;;18.60;99.90;;;;;;5070800;28;20473;-79
2022/06/14 05:06:07;;;;;;;5.10;3.13;;;18.60;99.90;;;;;;5069789;28;20485;-80
2022/06/14 05:08:40;;;;;;;4.67;2.73;;;18.70;99.90;;;;;;5070557;28;20457;-80
2022/06/14 05:11:16;;;;;;;8.87;2.60;;;18.80;99.90;;;;;;5070892;28;20533;-80
2022/06/14 05:13:54;;;;;;;4.13;2.43;;;18.80;99.90;;;;;;5070355;28;20450;-80
2022/06/14 05:16:29;;;;;;;2.60;2.40;;;18.80;99.90;;;;;;5065339;28;21034;-80
2022/06/14 05:19:05;;;;;;;3.00;2.43;;;18.80;99.90;;;;;;5067511;28;20769;-81
2022/06/14 05:21:43;;;;;;;4.80;3.17;;;19.20;99.90;;;;;;5070176;28;20465;-80
2022/06/14 05:24:11;;;;;;;3.80;3.40;;;19.00;99.90;;;;;;5069886;28;20473;-79
2022/06/14 05:27:04;;;;;;;6.60;3.53;;;19.00;99.90;;;;;;5069157;28;20987;-80
2022/06/14 05:29:43;;;;;;;3.53;3.20;;;19.10;99.90;;;;;;5069956;28;20466;-80
2022/06/14 05:32:24;;;;;;;2.47;2.27;;;19.10;99.90;;;;;;5067181;28;20474;-81
2022/06/14 05:35:02;;;;;;;2.93;2.63;;;19.10;99.90;;;;;;5069268;28;20490;-80
2022/06/14 05:37:37;;;;;;;4.90;3.60;;;19.10;99.90;;;;;;5070110;28;20892;-81
2022/06/14 05:40:15;;;;;;;3.57;2.73;;;19.10;99.90;;;;;;5068604;28;20463;-79
2022/06/14 05:42:48;;;;;;;3.50;3.20;;;19.20;99.90;;;;;;5069610;28;20977;-80
2022/06/14 05:45:22;;;;;;;5.07;2.47;;;19.20;99.90;;;;;;5068873;28;20891;-80
2022/06/14 05:47:58;;;;;;;5.33;2.40;;;19.30;99.90;;;;;;5069910;28;20462;-80
2022/06/14 05:50:31;;;;;;;4.20;3.07;;;19.30;99.90;;;;;;5069554;28;20458;-80
2022/06/14 05:53:07;;;;;;;4.90;2.70;;;19.30;99.90;;;;;;5069110;28;20458;-79
2022/06/14 05:55:39;;;;;;;4.63;2.73;;;19.40;99.90;;;;;;5068785;28;20997;-81
2022/06/14 05:58:12;;;;;;;4.33;2.67;;;19.40;99.90;;;;;;5069962;28;20966;-81
2022/06/14 06:00:44;;;;;;;3.30;2.73;;;19.40;99.90;;;;;;5069464;28;20941;-80
2022/06/14 06:03:20;;;;;;;6.63;3.70;;;19.50;99.90;;;;;;5069418;28;20495;-80
2022/06/14 06:05:54;;;;;;;3.47;1.93;;;19.60;99.90;;;;;;5068114;28;20543;-81
2022/06/14 06:08:29;;;;;;;3.77;3.00;;;19.60;99.90;;;;;;5057129;28;20451;-80
2022/06/14 06:11:03;;;;;;;3.00;2.50;;;19.70;99.90;;;;;;5069723;28;20521;-81
2022/06/14 06:13:38;;;;;;;4.73;2.30;;;19.70;99.90;;;;;;5069380;28;20450;-80
2022/06/14 06:16:12;;;;;;;3.70;2.40;;;19.80;99.90;;;;;;5068084;28;20445;-80
2022/06/14 06:18:47;;;;;;;4.43;1.93;;;19.90;99.90;;;;;;5066390;28;20541;-80
2022/06/14 06:21:28;;;;;;;3.70;2.10;;;19.90;99.90;;;;;;5069041;28;20454;-79
2022/06/14 06:24:03;;;;;;;5.60;2.87;;;20.00;99.90;;;;;;5060298;28;20458;-79
2022/06/14 06:26:36;;;;;;;5.10;2.77;;;20.00;99.90;;;;;;5066929;28;20845;-79
2022/06/14 06:29:10;;;;;;;2.50;2.30;;;20.10;99.90;;;;;;5069114;28;20465;-80
2022/06/14 06:31:41;;;;;;;3.40;2.10;;;20.10;99.90;;;;;;5056211;28;20465;-80
2022/06/14 06:34:13;;;;;;;3.77;2.60;;;20.20;99.90;;;;;;5067459;28;21037;-81
2022/06/14 06:37:00;;;;;;;4.27;3.07;;;20.30;99.90;;;;;;5067784;28;20458;-80
2022/06/14 06:39:37;;;;;;;6.33;2.50;;;20.30;99.90;;;;;;5069097;28;21250;-80
2022/06/14 06:42:12;;;;;;;4.03;2.50;;;20.40;99.90;;;;;;5068186;28;20454;-80
2022/06/14 06:44:48;;;;;;;3.23;2.20;;;20.50;99.90;;;;;;5068283;28;20462;-80
2022/06/14 06:47:21;;;;;;;3.20;2.37;;;20.50;99.90;;;;;;5067800;28;20454;-80
2022/06/14 06:50:12;;;;;;;5.13;2.70;;;20.50;99.90;;;;;;5068815;28;20465;-80
2022/06/14 06:52:48;;;;;;;6.63;2.80;;;20.60;99.90;;;;;;5058480;28;20450;-81
2022/06/14 06:55:30;;;;;;;2.83;2.40;;;20.70;99.90;;;;;;5067581;28;20474;-81
2022/06/14 06:58:01;;;;;;;3.60;2.40;;;20.80;99.90;;;;;;5067668;28;20818;-80
2022/06/14 07:00:31;;;;;;;4.00;2.60;;;20.90;99.90;;;;;;5068324;28;20869;-81
2022/06/14 07:03:12;;;;;;;4.03;2.33;;;20.90;99.90;;;;;;5068460;28;20453;-80
2022/06/14 07:05:43;;;;;;;7.17;2.63;;;21.00;99.90;;;;;;5067638;28;20478;-79
2022/06/14 07:08:16;;;;;;;3.07;2.77;;;20.90;99.90;;;;;;5068197;28;20458;-80
2022/06/14 07:10:49;;;;;;;2.70;2.10;;;20.90;99.90;;;;;;5059872;28;20454;-80
2022/06/14 07:13:23;;;;;;;2.33;1.90;;;21.00;99.90;;;;;;5054997;28;20451;-80
2022/06/14 07:15:59;;;;;;;3.30;2.50;;;21.00;99.90;;;;;;5065380;28;20466;-80
2022/06/14 07:18:30;;;;;;;4.20;1.83;;;21.10;99.90;;;;;;5068278;28;20666;-80
2022/06/14 07:21:08;;;;;;;4.13;2.43;;;21.20;99.90;;;;;;5067393;28;20465;-81
2022/06/14 07:23:43;;;;;;;5.37;2.33;;;21.30;99.90;;;;;;5068457;28;20460;-81
2022/06/14 07:26:19;;;;;;;3.60;1.93;;;21.40;99.90;;;;;;5067240;28;20477;-80
2022/06/14 07:29:01;;;;;;;2.47;2.20;;;21.40;99.90;;;;;;5068152;28;20453;-80
2022/06/14 07:31:35;;;;;;;2.40;2.20;;;21.50;99.90;;;;;;5067499;28;20462;-80
2022/06/14 07:34:04;;;;;;;2.47;2.27;;;21.50;99.90;;;;;;5067031;28;20484;-80
2022/06/14 07:36:47;;;;;;;2.30;2.10;;;21.60;99.90;;;;;;5067348;28;21001;-81
2022/06/14 07:39:23;;;;;;;5.87;2.17;;;21.70;99.90;;;;;;5067193;28;20458;-80
2022/06/14 07:41:57;;;;;;;4.13;2.40;;;21.80;99.90;;;;;;5068067;28;20490;-80
2022/06/14 07:44:31;;;;;;;4.60;2.80;;;21.70;99.90;;;;;;5067679;28;20490;-81
2022/06/14 07:47:08;;;;;;;2.43;1.80;;;21.70;99.90;;;;;;5067231;28;20657;-79
2022/06/14 07:49:52;;;;;;;4.60;2.70;;;21.80;99.90;;;;;;5058258;28;20455;-79
2022/06/14 07:52:27;;;;;;;2.70;1.97;;;21.80;99.90;;;;;;5068038;28;20454;-80
2022/06/14 07:55:03;;;;;;;3.60;2.37;;;21.80;99.90;;;;;;5067636;28;21017;-80
2022/06/14 07:57:34;;;;;;;3.70;1.87;;;21.80;99.90;;;;;;5067710;28;20453;-81
2022/06/14 08:02:54;;;;;;;3.13;1.83;;;22.00;99.90;;;;;;5067544;28;20465;-80
2022/06/14 08:05:27;;;;;;;3.90;1.70;;;22.00;99.90;;;;;;5062782;28;21281;-80
2022/06/14 08:07:58;;;;;;;3.60;2.00;;;22.00;99.90;;;;;;5067633;28;20458;-80
2022/06/14 08:10:34;;;;;;;2.97;2.00;;;21.80;99.20;;;;;;5070850;28;20461;-81
2022/06/14 08:13:07;;;;;;;2.90;1.80;;;21.90;99.90;;;;;;5057889;28;20456;-80
2022/06/14 08:15:38;;;;;;;3.40;1.83;;;22.00;99.90;;;;;;5070338;28;20477;-80
2022/06/14 08:18:12;;;;;;;3.40;2.17;;;22.10;99.90;;;;;;5071122;28;20450;-80
2022/06/14 08:20:45;;;;;;;2.77;2.37;;;22.10;99.90;;;;;;5068408;28;20537;-80
2022/06/14 08:23:25;;;;;;;3.27;2.00;;;22.20;99.90;;;;;;5068455;28;20450;-81
2022/06/14 08:25:57;;;;;;;4.57;2.27;;;22.20;99.90;;;;;;5070300;28;20550;-81
2022/06/14 08:28:31;;;;;;;3.27;1.97;;;22.20;99.90;;;;;;5070356;28;20466;-80
2022/06/14 08:31:09;;;;;;;1.90;1.80;;;22.30;99.90;;;;;;5070685;28;20466;-80
2022/06/14 08:33:44;;;;;;;4.07;2.10;;;22.30;99.90;;;;;;5069440;28;20457;-80
2022/06/14 08:36:21;;;;;;;2.07;1.87;;;22.30;99.90;;;;;;5070160;28;20450;-80
2022/06/14 08:38:53;;;;;;;3.67;1.80;;;22.50;99.90;;;;;;5070430;28;20454;-79
2022/06/14 08:41:51;;;;;;;3.03;2.03;;;22.50;99.90;;;;;;5059722;28;20457;-80
2022/06/14 08:44:23;;;;;;;4.30;2.10;;;22.60;99.90;;;;;;5070371;28;20477;-80
2022/06/14 08:47:03;;;;;;;1.67;1.57;;;22.60;99.90;;;;;;5070294;28;20485;-80
2022/06/14 08:49:45;;;;;;;3.53;2.37;;;22.70;99.90;;;;;;5069204;28;20507;-80
2022/06/14 08:52:50;;;;;;;2.13;1.93;;;22.70;99.90;;;;;;5070664;28;20453;-80
2022/06/14 08:55:57;;;;;;;3.77;2.23;;;22.70;99.90;;;;;;5069460;28;20470;-80
2022/06/14 08:58:48;;;;;;;1.70;1.60;;;22.80;99.90;;;;;;5064842;28;20485;-80
2022/06/14 09:01:26;;;;;;;2.00;1.50;;;22.70;99.00;;;;;;5070469;28;20814;-80
2022/06/14 09:04:33;;;;;;;3.37;2.23;;;22.80;99.90;;;;;;5069863;28;20547;-80
2022/06/14 09:07:22;;;;;;;1.80;1.60;;;22.90;99.90;;;;;;5069686;28;20481;-81
2022/06/14 09:10:17;;;;;;;2.70;1.83;;;23.00;99.90;;;;;;5070471;28;20450;-80
2022/06/14 09:13:36;;;;;;;5.27;4.07;;;23.10;99.90;;;;;;5070899;28;21031;-80
2022/06/14 09:16:39;;;;;;;4.33;1.60;;;23.10;99.90;;;;;;5068709;28;20553;-80
2022/06/14 09:19:23;;;;;;;2.60;1.50;;;23.10;99.90;;;;;;5069565;28;20454;-79
2022/06/14 09:22:07;;;;;;;2.10;1.57;;;22.60;99.40;;;;;;5070185;28;20435;-80
2022/06/14 09:25:02;;;;;;;2.63;1.67;;;23.00;95.10;;;;;;5070017;28;20479;-80
2022/06/14 09:27:48;;;;;;;3.20;1.57;;;22.90;93.90;;;;;;5069722;28;20466;-80
2022/06/14 09:30:47;;;;;;;2.83;1.90;;;22.80;91.80;;;;;;5066582;28;20451;-80
2022/06/14 09:33:52;;;;;;;2.90;1.90;;;23.00;94.90;;;;;;5062722;28;20469;-80
2022/06/14 09:37:08;;;;;;;3.63;1.67;;;22.80;94.30;;;;;;5050457;28;20465;-80
2022/06/14 09:40:13;;;;;;;1.87;1.60;;;23.00;95.30;;;;;;4969039;28;20512;-80
2022/06/14 09:43:25;;;;;;;2.40;1.70;;;23.00;96.40;;;;;;5055327;28;20458;-80
2022/06/14 09:46:21;;;;;;;3.47;2.00;;;23.20;98.30;;;;;;5062130;28;20497;-80
2022/06/14 09:49:25;;;;;;;2.73;1.57;;;23.30;97.70;;;;;;5066814;28;20939;-80
2022/06/14 09:52:38;;;;;;;2.83;1.57;;;23.40;99.00;;;;;;5057741;28;20993;-80
2022/06/14 09:55:45;;;;;;;2.50;1.67;;;23.50;99.90;;;;;;5067814;28;20489;-80
2022/06/14 09:58:46;;;;;;;1.60;1.50;;;23.50;95.30;;;;;;5056632;28;20454;-81
2022/06/14 10:01:23;;;;;;;2.20;1.50;;;23.60;96.70;;;;;;5069154;28;20850;-79
2022/06/14 10:04:16;;;;;;;2.70;1.90;;;23.60;98.10;;;;;;5068320;28;20502;-80
2022/06/14 10:07:06;;;;;;;1.70;1.60;;;23.60;95.40;;;;;;5058652;28;20471;-80
2022/06/14 10:09:55;;;;;;;3.53;1.47;;;23.50;95.90;;;;;;5070188;28;20462;-80
2022/06/14 10:12:50;;;;;;;2.50;2.00;;;23.60;97.40;;;;;;5069591;28;20554;-80
2022/06/14 10:15:23;;;;;;;1.60;1.40;;;23.70;99.10;;;;;;5068383;28;20532;-80
2022/06/14 10:18:19;;;;;;;1.90;1.40;;;23.70;99.90;;;;;;5069326;28;20457;-81
2022/06/14 10:20:59;;;;;;;4.50;1.50;;;23.80;99.90;;;;;;5063133;28;21762;-80
2022/06/14 10:23:43;;;;;;;3.00;1.70;;;23.90;97.60;;;;;;5060493;28;20442;-80
2022/06/14 10:29:32;;;;;;;1.50;1.40;;;24.00;98.50;;;;;;5045245;28;20826;-81
2022/06/14 10:32:30;;;;;;;2.17;1.70;;;24.00;99.00;;;;;;5067910;28;20470;-80
2022/06/14 10:35:07;;;;;;;3.47;1.37;;;24.10;99.00;;;;;;5068969;28;20474;-81
2022/06/14 10:37:55;;;;;;;1.50;1.40;;;24.10;99.90;;;;;;5069717;28;20462;-81
2022/06/14 10:40:50;;;;;;;2.80;1.30;;;24.20;99.50;;;;;;5064785;28;20450;-80
2022/06/14 10:43:28;;;;;;;1.80;1.47;;;24.30;99.20;;;;;;5068658;28;20438;-80
2022/06/14 10:46:08;;;;;;;2.33;1.77;;;24.30;95.90;;;;;;5055655;28;20532;-80
2022/06/14 10:49:02;;;;;;;1.50;1.30;;;24.10;94.30;;;;;;5068904;28;20571;-80
2022/06/14 10:51:52;;;;;;;1.57;1.47;;;24.20;96.40;;;;;;5056862;28;20453;-79
2022/06/14 10:54:27;;;;;;;2.10;1.40;;;24.30;97.20;;;;;;5066732;28;20470;-79
2022/06/14 10:57:24;;;;;;;1.70;1.47;;;24.40;96.60;;;;;;5067547;28;20512;-80
2022/06/14 11:00:10;;;;;;;1.67;1.40;;;24.40;95.30;;;;;;5069437;28;20450;-80
2022/06/14 11:03:04;;;;;;;2.03;1.30;;;24.40;96.20;;;;;;5068977;28;20446;-79
2022/06/14 11:05:41;;;;;;;1.43;1.33;;;24.50;97.60;;;;;;5055636;28;20482;-79
2022/06/14 11:08:35;;;;;;;1.50;1.40;;;24.50;96.80;;;;;;5068265;28;20472;-79
2022/06/14 11:11:33;;;;;;;1.40;1.30;;;24.50;95.30;;;;;;5066431;28;20469;-80
2022/06/14 11:14:12;;;;;;;1.40;1.30;;;24.60;96.30;;;;;;5034513;28;20494;-81
2022/06/14 11:17:11;;;;;;;1.70;1.40;;;24.70;95.70;;;;;;5067466;28;20461;-80
2022/06/14 11:19:56;;;;;;;1.10;1.00;;;24.70;99.90;;;;;;5038280;28;20399;-79
2022/06/14 11:22:40;;;;;;;3.00;1.50;;;24.70;92.80;;;;;;5068516;28;20208;-80
2022/06/14 11:25:22;;;;;;;2.40;1.40;;;24.70;92.80;;;;;;5067478;28;20486;-80
2022/06/14 11:28:00;;;;;;;1.50;1.30;;;24.70;92.20;;;;;;5068184;28;20527;-79
2022/06/14 11:30:38;;;;;;;3.07;1.40;;;24.70;93.50;;;;;;5062906;28;20450;-80
2022/06/14 11:33:16;;;;;;;1.47;1.37;;;24.80;93.30;;;;;;5065661;28;20458;-80
2022/06/14 11:36:13;;;;;;;2.73;1.33;;;24.80;92.80;;;;;;5067387;28;20543;-80
2022/06/14 11:38:57;;;;;;;1.33;1.23;;;24.70;92.20;;;;;;5067816;28;20451;-80
2022/06/14 11:41:34;;;;;;;1.87;1.30;;;24.70;91.70;;;;;;5068123;28;20462;-80
2022/06/14 11:44:24;;;;;;;2.50;1.63;;;24.70;92.10;;;;;;5070654;28;20477;-80
2022/06/14 11:47:02;;;;;;;2.17;1.40;;;24.80;94.20;;;;;;5068042;28;20545;-80
2022/06/14 11:49:38;;;;;;;1.67;1.57;;;24.80;95.80;;;;;;5071903;28;20478;-80
2022/06/14 11:52:29;;;;;;;2.40;1.50;;;24.90;94.70;;;;;;5071597;28;20458;-80
2022/06/14 11:55:13;;;;;;;1.33;1.17;;;25.00;94.50;;;;;;5071165;28;20485;-80
2022/06/14 11:57:52;;;;;;;1.40;1.20;;;25.00;99.90;;;;;;5071048;28;20441;-80
2022/06/14 12:00:35;;;;;;;1.10;1.00;;;25.00;90.10;;;;;;5071777;28;20442;-80
2022/06/14 12:03:46;;;;;;;1.83;1.30;;;25.00;91.80;;;;;;5067566;28;20538;-81
2022/06/14 12:06:27;;;;;;;1.70;1.10;;;25.10;90.00;;;;;;5067868;28;20517;-79
2022/06/14 12:09:12;;;;;;;1.73;1.27;;;25.10;91.20;;;;;;5071306;28;20482;-80
2022/06/14 12:11:42;;;;;;;1.20;1.10;;;25.10;85.60;;;;;;5071149;28;20461;-80
2022/06/14 12:14:35;;;;;;;1.33;1.20;;;25.00;81.30;;;;;;5070545;28;20482;-80
2022/06/14 12:17:12;;;;;;;1.40;1.30;;;25.00;79.60;;;;;;5070814;28;20454;-79
2022/06/14 12:19:42;;;;;;;1.07;0.97;;;25.00;80.00;;;;;;5068838;28;20457;-79
2022/06/14 12:22:28;;;;;;;1.00;1.00;;;25.00;78.60;;;;;;5057725;28;20882;-80
2022/06/14 12:27:50;;;;;;;1.50;0.93;;;25.00;78.90;;;;;;5070515;28;20463;-79
2022/06/14 12:30:20;;;;;;;2.63;1.27;;;25.00;77.00;;;;;;5069276;28;20946;-80
2022/06/14 12:32:58;;;;;;;2.50;1.10;;;25.00;80.10;;;;;;5068687;28;21399;-80
2022/06/14 12:35:32;;;;;;;2.00;1.87;;;25.10;77.00;;;;;;5070108;28;20471;-80
2022/06/14 12:38:04;;;;;;;2.13;1.20;;;25.10;75.90;;;;;;5062365;28;20467;-81
2022/06/14 12:40:39;;;;;;;1.27;1.17;;;25.10;79.50;;;;;;5070697;28;20844;-80
2022/06/14 12:43:15;;;;;;;1.30;1.20;;;25.20;81.10;;;;;;5070650;28;20500;-80
2022/06/14 12:45:49;;;;;;;1.30;1.13;;;25.30;83.30;;;;;;5070193;28;20464;-80
2022/06/14 12:48:28;;;;;;;1.97;1.23;;;25.30;84.40;;;;;;5077802;28;20476;-80
2022/06/14 12:50:59;;;;;;;1.30;1.10;;;25.40;83.10;;;;;;5070786;28;20472;-80
2022/06/14 12:53:39;;;;;;;1.70;1.20;;;25.40;83.40;;;;;;5070493;28;20447;-80
2022/06/14 12:56:13;;;;;;;1.40;1.20;;;25.30;76.50;;;;;;5059969;28;20453;-80
2022/06/14 12:58:51;;;;;;;4.00;1.30;;;25.20;70.70;;;;;;5070715;28;20445;-79
2022/06/14 13:01:34;;;;;;;1.13;1.13;;;25.30;75.50;;;;;;5070548;28;21056;-80
2022/06/14 13:04:09;;;;;;;1.30;1.20;;;25.40;76.30;;;;;;5070313;28;20548;-80
2022/06/14 13:06:54;;;;;;;1.20;1.10;;;25.50;78.50;;;;;;5057111;28;20474;-80
2022/06/14 13:09:31;;;;;;;1.20;1.10;;;25.50;76.80;;;;;;5070375;28;20874;-80
2022/06/14 13:12:12;;;;;;;1.63;1.43;;;25.60;77.00;;;;;;5060594;28;20451;-78
2022/06/14 13:14:49;;;;;;;1.23;1.13;;;25.60;74.60;;;;;;5069365;28;20478;-80
2022/06/14 13:17:34;;;;;;;1.47;1.10;;;25.50;77.20;;;;;;5070821;28;20439;-79
2022/06/14 13:20:10;;;;;;;1.20;1.10;;;25.60;78.10;;;;;;5066638;28;20821;-80
2022/06/14 13:23:00;;;;;;;3.43;1.10;;;25.50;70.90;;;;;;5070091;28;20544;-80
2022/06/14 13:25:48;;;;;;;2.53;1.30;;;25.60;74.40;;;;;;5069715;28;20476;-81
2022/06/14 13:28:30;;;;;;;1.10;1.00;;;25.70;76.90;;;;;;5056010;28;20973;-80
2022/06/14 13:31:09;;;;;;;1.47;1.37;;;25.70;72.60;;;;;;5063293;28;20463;-80
2022/06/14 13:33:48;;;;;;;1.40;1.20;;;25.50;70.50;;;;;;5067904;28;20965;-80
2022/06/14 13:36:23;;;;;;;2.27;1.47;;;25.60;73.80;;;;;;5069121;28;20961;-79
2022/06/14 13:38:58;;;;;;;1.90;1.30;;;25.50;68.00;;;;;;5069747;28;20457;-80
2022/06/14 13:41:36;;;;;;;1.30;1.20;;;25.50;72.00;;;;;;5069947;28;20446;-80
2022/06/14 13:44:15;;;;;;;1.00;1.00;;;25.60;76.50;;;;;;5069836;28;20540;-79
2022/06/14 13:46:48;;;;;;;1.73;1.63;;;25.70;76.40;;;;;;5064074;28;20486;-80
2022/06/14 13:49:26;;;;;;;1.13;1.03;;;25.70;78.20;;;;;;5069252;28;20459;-80
2022/06/14 13:52:01;;;;;;;1.97;1.30;;;25.80;78.10;;;;;;5070582;28;20466;-80
2022/06/14 13:54:34;;;;;;;1.73;1.50;;;25.70;75.90;;;;;;5070226;28;20523;-80
2022/06/14 13:57:18;;;;;;;1.37;1.27;;;25.70;73.80;;;;;;5070347;28;20447;-80
2022/06/14 13:59:49;;;;;;;3.33;1.30;;;25.70;72.50;;;;;;5069802;28;21320;-80